Wardeh — ODUS — position and weather

sailwx.info

Track history (hours):
 
Tides and Currents Weather Stations Pressure Air Temp Water Temp Dewpoint Dewpoint Depression Visibility Wind Speed Wind Dir Waves Ship Positions

Wardeh

Last reported at 2014-Sep-08 07:31 UTC. Time now 2014-Sep-15 09:32 UTC.
Position N 36°20' W 002°01'.

; draft 7.1 m.

Type: Cargo ship. MMSI: 450522000.

Date/timePositionNaut miles runAvg speedWind from/ knotsBaromVisibWave heightAir tempDewpointWater temp
2014-Sep-08 07:31N 36°20' W 002°01'1414.1
2014-Sep-08 06:33N 36°23' W 001°44'1814.5
2014-Sep-08 05:21N 36°26' W 001°23'1714.2
2014-Sep-08 04:09N 36°30' W 001°02'1114.2
2014-Sep-08 03:22N 36°32' W 000°49'1113.9
2014-Sep-08 02:33N 36°34' W 000°35'1713.7
2014-Sep-08 01:20N 36°37' W 000°15'1414.2
2014-Sep-08 00:23N 36°39' E 000°02'4014.0
2014-Sep-07 21:33N 36°44' E 000°51'1413.9
2014-Sep-07 20:33N 36°46' E 001°08'1413.9
2014-Sep-07 19:33N 36°48' E 001°25'1414.1
2014-Sep-07 18:33N 36°51' E 001°43'2914.0
2014-Sep-07 16:27N 36°56' E 002°19'1413.9
2014-Sep-07 15:25N 36°58' E 002°36'1413.5
2014-Sep-07 14:25N 36°59' E 002°53'1414.0
2014-Sep-07 13:27N 37°01' E 003°10'1313.7
2014-Sep-07 12:32N 37°03' E 003°26'1514.7
2014-Sep-07 11:30N 37°05' E 003°45'1314.3
2014-Sep-07 10:33N 37°07' E 004°02'1514.0
2014-Sep-07 09:31N 37°09' E 004°20'1314.1
2014-Sep-07 08:34N 37°11' E 004°36'1414.1
2014-Sep-07 07:32N 37°13' E 004°54'1414.1
2014-Sep-07 06:33N 37°15' E 005°11'1414.4
2014-Sep-07 05:33N 37°17' E 005°29'4914.8
2014-Sep-07 02:13N 37°23' E 006°31'15614.3
2014-Sep-06 15:18N 37°38' E 009°47'18414.4
2014-Sep-06 02:33N 36°54' E 013°31'1514.9
2014-Sep-06 01:33N 36°49' E 013°48'1514.8
2014-Sep-06 00:33N 36°45' E 014°06'1514.5
2014-Sep-05 23:33N 36°41' E 014°23'1413.9
2014-Sep-05 22:33N 36°36' E 014°40'73214.1
2014-Sep-03 18:34N 34°22' E 029°24'2914.2
2014-Sep-03 16:30N 34°20' E 029°60'1314.1
2014-Sep-03 15:34N 34°18' E 030°15'4713.9
2014-Sep-03 12:11N 34°15' E 031°12'  
2014-Aug-31 19:27N 34°06' E 032°52'1314.0
2014-Aug-31 18:31N 34°06' E 032°36'1614.0
2014-Aug-31 17:24N 34°09' E 032°18'  
Track history (hours):
 
Tides and Currents Weather Stations Pressure Air Temp Water Temp Dewpoint Dewpoint Depression Visibility Wind Speed Wind Dir Waves Ship Positions

Wardeh

Last reported at 2014-Sep-08 07:31 UTC. Time now 2014-Sep-15 09:32 UTC.
Position N 36°20' W 002°01'.

; draft 7.1 m.

Type: Cargo ship. MMSI: 450522000.

Date/timePositionNaut miles runAvg speedWind from/ knotsBaromVisibWave heightAir tempDewpointWater temp
2014-Sep-08 07:31N 36°20' W 002°01'1414.1
2014-Sep-08 06:33N 36°23' W 001°44'1814.5
2014-Sep-08 05:21N 36°26' W 001°23'1714.2
2014-Sep-08 04:09N 36°30' W 001°02'1114.2
2014-Sep-08 03:22N 36°32' W 000°49'1113.9
2014-Sep-08 02:33N 36°34' W 000°35'1713.7
2014-Sep-08 01:20N 36°37' W 000°15'1414.2
2014-Sep-08 00:23N 36°39' E 000°02'4014.0
2014-Sep-07 21:33N 36°44' E 000°51'1413.9
2014-Sep-07 20:33N 36°46' E 001°08'1413.9
2014-Sep-07 19:33N 36°48' E 001°25'1414.1
2014-Sep-07 18:33N 36°51' E 001°43'2914.0
2014-Sep-07 16:27N 36°56' E 002°19'1413.9
2014-Sep-07 15:25N 36°58' E 002°36'1413.5
2014-Sep-07 14:25N 36°59' E 002°53'1414.0
2014-Sep-07 13:27N 37°01' E 003°10'1313.7
2014-Sep-07 12:32N 37°03' E 003°26'1514.7
2014-Sep-07 11:30N 37°05' E 003°45'1314.3
2014-Sep-07 10:33N 37°07' E 004°02'1514.0
2014-Sep-07 09:31N 37°09' E 004°20'1314.1
2014-Sep-07 08:34N 37°11' E 004°36'1414.1
2014-Sep-07 07:32N 37°13' E 004°54'1414.1
2014-Sep-07 06:33N 37°15' E 005°11'1414.4
2014-Sep-07 05:33N 37°17' E 005°29'4914.8
2014-Sep-07 02:13N 37°23' E 006°31'15614.3
2014-Sep-06 15:18N 37°38' E 009°47'18414.4
2014-Sep-06 02:33N 36°54' E 013°31'1514.9
2014-Sep-06 01:33N 36°49' E 013°48'1514.8
2014-Sep-06 00:33N 36°45' E 014°06'1514.5
2014-Sep-05 23:33N 36°41' E 014°23'1413.9
2014-Sep-05 22:33N 36°36' E 014°40'73214.1
2014-Sep-03 18:34N 34°22' E 029°24'2914.2
2014-Sep-03 16:30N 34°20' E 029°60'1314.1
2014-Sep-03 15:34N 34°18' E 030°15'4713.9
2014-Sep-03 12:11N 34°15' E 031°12'  
2014-Aug-31 19:27N 34°06' E 032°52'1314.0
2014-Aug-31 18:31N 34°06' E 032°36'1614.0
2014-Aug-31 17:24N 34°09' E 032°18'  

Dump ship's entire track history